aviador You're here:

KROG Decoded Metar

ROGERS in AR, USA
Report Time2017-08-16 18:50:00
UTC Time2017-08-16 19:30:38
Flight Rules mvfr MVFR
Wind220° at 11 Gusting to 18 kt
W.Decomp.*RWY 20: 10.6 kt HW 3.0 kt RCW
W.Rank220° ranks 13
Current wind is above 220° avg. (8.9)
Visibility9999 m
Phenomena:N/A
Clouds:Broken 027 Hf
Expected CloudBase > 2,400 ft AGL from Temp-Dew spread
Ceiling2,700 ft
Temp29°C (ISA +17)
Dew Point23°C (70% RH)
Heat Index32.7°C
QNH1015 hPa
Density Alt3,586 ft
Elevation1,362 ft
Report Wrong Elevation
Raw Report
KROG 161850Z 22011G18KT 10SM BKN027 29/23 A2996 RMK AO2 LTG DSNT
SW=

Extra information for KROG:More info

Metar Taf Metar & Taf Last 4 Metars F.Rules Stats Wind Profile Meteogram Temp Stats Airport Information Weather charts Add Link Nearby VenuesMetar ALERT Operation Metar Decoded Social comments

AIRNAV info for KROG